createdAt,value
2023-03-10T00:00:36.774Z,4.20
2023-03-10T00:01:35.762Z,3.50
2023-03-10T00:02:35.754Z,3.50
2023-03-10T00:03:35.733Z,3.20
2023-03-10T00:04:35.857Z,3.60
2023-03-10T00:05:35.755Z,3.50
2023-03-10T00:06:35.755Z,3.70
2023-03-10T00:07:35.685Z,3.60
2023-03-10T00:08:35.665Z,3.60
2023-03-10T00:09:35.840Z,3.40
2023-03-10T00:10:35.680Z,3.80
2023-03-10T00:11:35.635Z,3.90
2023-03-10T00:12:35.616Z,3.80
2023-03-10T00:13:35.620Z,3.80
2023-03-10T00:14:35.613Z,3.80
2023-03-10T00:15:35.654Z,3.10
2023-03-10T00:16:35.588Z,3.70
2023-03-10T00:17:35.559Z,3.80
2023-03-10T00:18:35.552Z,3.40
2023-03-10T00:19:35.549Z,4.10
2023-03-10T00:20:35.557Z,4.00
2023-03-10T00:21:35.514Z,3.60
2023-03-10T00:22:36.506Z,2.80
2023-03-10T00:23:37.463Z,3.90
2023-03-10T00:24:35.504Z,3.60
2023-03-10T00:25:35.474Z,4.30
2023-03-10T00:26:35.469Z,4.10
2023-03-10T00:27:35.469Z,3.80
2023-03-10T00:28:35.432Z,3.40
2023-03-10T00:29:35.447Z,3.80
2023-03-10T00:30:35.471Z,4.50
2023-03-10T00:31:35.421Z,3.80
2023-03-10T00:32:35.435Z,4.10
2023-03-10T00:33:36.379Z,4.10
2023-03-10T00:34:35.375Z,4.30
2023-03-10T00:35:35.436Z,4.20
2023-03-10T00:36:35.366Z,4.20
2023-03-10T00:37:35.339Z,4.80
2023-03-10T00:38:35.325Z,4.20
2023-03-10T00:39:35.352Z,4.00
2023-03-10T00:40:35.312Z,4.00
2023-03-10T00:41:35.285Z,4.10
2023-03-10T00:42:35.296Z,4.40
2023-03-10T00:43:35.256Z,4.40
2023-03-10T00:44:35.272Z,5.00
2023-03-10T00:45:35.275Z,4.50
2023-03-10T00:46:35.261Z,4.30
2023-03-10T00:47:35.224Z,4.20
2023-03-10T00:48:35.191Z,4.30
2023-03-10T00:49:35.202Z,4.70
2023-03-10T00:50:35.203Z,4.00
2023-03-10T00:51:35.162Z,4.30
2023-03-10T00:52:35.153Z,4.40
2023-03-10T00:53:35.157Z,3.90
2023-03-10T00:54:35.128Z,4.00
2023-03-10T00:55:35.122Z,4.00
2023-03-10T00:56:35.114Z,4.00
2023-03-10T00:57:35.102Z,2.90
2023-03-10T00:58:35.082Z,3.40
2023-03-10T00:59:49.495Z,3.80
2023-03-10T01:00:35.103Z,3.50
2023-03-10T01:01:35.063Z,3.80
2023-03-10T01:02:35.053Z,4.00
2023-03-10T01:03:35.016Z,3.50
2023-03-10T01:04:35.099Z,4.00
2023-03-10T01:05:35.046Z,3.10
2023-03-10T01:06:35.979Z,3.40
2023-03-10T01:07:34.984Z,3.40
2023-03-10T01:08:34.958Z,3.40
2023-03-10T01:09:34.945Z,3.40
2023-03-10T01:10:34.953Z,3.80
2023-03-10T01:11:34.992Z,3.40
2023-03-10T01:12:34.916Z,3.30
2023-03-10T01:13:34.915Z,3.10
2023-03-10T01:14:34.891Z,3.50
2023-03-10T01:15:34.899Z,3.70
2023-03-10T01:16:35.023Z,3.10
2023-03-10T01:17:34.855Z,3.30
2023-03-10T01:18:34.856Z,3.30
2023-03-10T01:19:34.836Z,3.40
2023-03-10T01:20:34.835Z,3.10
2023-03-10T01:21:34.872Z,3.60
2023-03-10T01:22:34.851Z,3.30
2023-03-10T01:23:34.786Z,3.00
2023-03-10T01:24:34.784Z,3.20
2023-03-10T01:25:34.798Z,2.30
2023-03-10T01:26:34.763Z,2.80
2023-03-10T01:27:34.795Z,2.70
2023-03-10T01:28:34.735Z,3.30
2023-03-10T01:29:34.725Z,3.00
2023-03-10T01:30:34.732Z,3.20
2023-03-10T01:31:34.710Z,3.20
2023-03-10T01:32:34.708Z,3.20
2023-03-10T01:33:34.742Z,3.40
2023-03-10T01:34:34.665Z,3.40
2023-03-10T01:35:34.669Z,3.10
2023-03-10T01:36:34.657Z,3.20
2023-03-10T01:37:34.645Z,3.00
2023-03-10T01:38:34.676Z,3.40
2023-03-10T01:39:34.603Z,3.40
2023-03-10T01:40:34.698Z,2.90
2023-03-10T01:41:34.570Z,3.10
2023-03-10T01:42:34.563Z,3.00
2023-03-10T01:43:34.614Z,3.20
2023-03-10T01:44:34.857Z,3.00
2023-03-10T01:45:34.522Z,3.00
2023-03-10T01:46:34.590Z,2.90
2023-03-10T01:47:34.535Z,3.40
2023-03-10T01:48:34.506Z,2.90
2023-03-10T01:49:34.566Z,3.20
2023-03-10T01:50:34.469Z,3.40
2023-03-10T01:51:34.505Z,3.20
2023-03-10T01:52:34.466Z,2.80
2023-03-10T01:53:34.682Z,2.70
2023-03-10T01:54:34.438Z,2.90
2023-03-10T01:55:34.467Z,3.20
2023-03-10T01:56:34.445Z,3.00
2023-03-10T01:57:34.401Z,2.80
2023-03-10T01:58:34.377Z,3.00
2023-03-10T01:59:34.378Z,2.70
2023-03-10T02:00:34.445Z,3.10
2023-03-10T02:01:34.360Z,3.10
2023-03-10T02:02:34.335Z,3.00
2023-03-10T02:03:34.345Z,2.40
2023-03-10T02:04:34.330Z,2.90
2023-03-10T02:05:34.329Z,3.00
2023-03-10T02:06:34.305Z,2.60
2023-03-10T02:07:34.283Z,3.10
2023-03-10T02:08:34.283Z,2.90
2023-03-10T02:09:34.254Z,3.20
2023-03-10T02:10:34.272Z,3.00
2023-03-10T02:11:34.249Z,2.80
2023-03-10T02:12:34.217Z,2.90
2023-03-10T02:13:34.211Z,2.80
2023-03-10T02:14:34.199Z,2.80
2023-03-10T02:15:34.216Z,2.90
2023-03-10T02:16:34.288Z,3.20
2023-03-10T02:17:34.210Z,2.90
2023-03-10T02:18:34.159Z,2.70
2023-03-10T02:19:34.145Z,3.10
2023-03-10T02:20:34.156Z,2.90
2023-03-10T02:21:34.145Z,3.00
2023-03-10T02:22:34.111Z,3.00
2023-03-10T02:23:34.111Z,2.90
2023-03-10T02:24:34.095Z,2.80
2023-03-10T02:25:34.090Z,3.20
2023-03-10T02:26:34.107Z,3.00
2023-03-10T02:27:34.051Z,2.60
2023-03-10T02:28:34.044Z,3.30
2023-03-10T02:29:35.569Z,3.00
2023-03-10T02:30:34.017Z,2.90
2023-03-10T02:31:34.105Z,3.20
2023-03-10T02:32:34.042Z,3.40
2023-03-10T02:33:33.988Z,3.10
2023-03-10T02:34:33.984Z,3.30
2023-03-10T02:35:34.015Z,3.10
2023-03-10T02:36:33.954Z,3.40
2023-03-10T02:37:33.972Z,3.30
2023-03-10T02:38:33.922Z,3.40
2023-03-10T02:39:34.539Z,2.80
2023-03-10T02:40:34.117Z,3.40
2023-03-10T02:41:33.900Z,3.60
2023-03-10T02:42:33.948Z,3.10
2023-03-10T02:43:33.899Z,3.10
2023-03-10T02:44:33.862Z,3.00
2023-03-10T02:45:33.924Z,3.40
2023-03-10T02:46:33.847Z,3.10
2023-03-10T02:47:33.868Z,3.00
2023-03-10T02:48:34.359Z,3.60
2023-03-10T02:49:33.783Z,2.90
2023-03-10T02:50:33.794Z,3.60
2023-03-10T02:51:33.763Z,3.40
2023-03-10T02:52:33.765Z,3.50
2023-03-10T02:53:33.771Z,3.30
2023-03-10T02:54:33.737Z,3.10
2023-03-10T02:55:34.376Z,2.80
2023-03-10T02:56:34.662Z,3.20
2023-03-10T02:57:33.712Z,3.60
2023-03-10T02:58:33.750Z,3.40
2023-03-10T02:59:33.681Z,3.10
2023-03-10T03:00:33.662Z,3.20
2023-03-10T03:01:35.455Z,3.20
2023-03-10T03:02:33.644Z,3.70
2023-03-10T03:03:33.693Z,3.20
2023-03-10T03:04:33.608Z,3.60
2023-03-10T03:05:33.609Z,3.60
2023-03-10T03:06:33.612Z,3.60
2023-03-10T03:07:33.600Z,3.10
2023-03-10T03:08:33.576Z,2.90
2023-03-10T03:09:33.607Z,3.60
2023-03-10T03:10:33.548Z,3.10
2023-03-10T03:11:33.553Z,3.20
2023-03-10T03:12:33.544Z,3.00
2023-03-10T03:13:33.502Z,3.30
2023-03-10T03:14:33.540Z,2.90
2023-03-10T03:15:33.491Z,3.20
2023-03-10T03:16:33.512Z,3.20
2023-03-10T03:17:33.466Z,3.10
2023-03-10T03:18:33.467Z,3.00
2023-03-10T03:19:33.441Z,3.00
2023-03-10T03:20:33.441Z,3.40
2023-03-10T03:21:33.426Z,3.10
2023-03-10T03:22:33.402Z,3.50
2023-03-10T03:23:33.392Z,3.10
2023-03-10T03:24:33.430Z,2.30
2023-03-10T03:25:33.402Z,2.90
2023-03-10T03:26:33.351Z,3.30
2023-03-10T03:27:33.360Z,3.00
2023-03-10T03:28:33.334Z,2.60
2023-03-10T03:29:33.350Z,2.90
2023-03-10T03:30:33.340Z,3.30
2023-03-10T03:31:33.332Z,3.20
2023-03-10T03:32:33.303Z,3.30
2023-03-10T03:33:33.300Z,3.30
2023-03-10T03:34:33.285Z,3.00
2023-03-10T03:35:33.287Z,3.30
2023-03-10T03:36:33.263Z,3.90
2023-03-10T03:37:33.228Z,3.00
2023-03-10T03:38:33.211Z,3.10
2023-03-10T03:39:33.258Z,2.80
2023-03-10T03:40:33.209Z,2.60
2023-03-10T03:41:33.180Z,2.90
2023-03-10T03:42:33.178Z,3.00
2023-03-10T03:43:33.162Z,2.60
2023-03-10T03:44:33.166Z,2.90
2023-03-10T03:45:33.188Z,3.10
2023-03-10T03:46:33.171Z,3.40
2023-03-10T03:47:33.126Z,3.00
2023-03-10T03:48:33.100Z,3.00
2023-03-10T03:49:33.076Z,2.60
2023-03-10T03:50:33.117Z,2.70
2023-03-10T03:51:33.089Z,3.10
2023-03-10T03:52:33.056Z,2.80
2023-03-10T03:53:33.050Z,2.70
2023-03-10T03:54:33.052Z,2.90
2023-03-10T03:55:33.057Z,3.10
2023-03-10T03:56:33.019Z,3.00
2023-03-10T03:57:33.016Z,3.20
2023-03-10T03:58:32.987Z,2.20
2023-03-10T03:59:32.973Z,2.20
2023-03-10T04:00:32.976Z,2.30
2023-03-10T04:01:32.959Z,3.00
2023-03-10T04:02:32.971Z,3.10
2023-03-10T04:03:33.041Z,3.00
2023-03-10T04:04:32.947Z,2.60
2023-03-10T04:05:32.906Z,2.90
2023-03-10T04:06:32.932Z,2.20
2023-03-10T04:07:32.884Z,2.80
2023-03-10T04:08:32.864Z,2.70
2023-03-10T04:09:32.857Z,2.70
2023-03-10T04:10:32.837Z,2.50
2023-03-10T04:11:32.858Z,2.60
2023-03-10T04:12:32.836Z,2.70
2023-03-10T04:13:32.800Z,3.00
2023-03-10T04:14:32.801Z,2.80
2023-03-10T04:15:32.799Z,2.70
2023-03-10T04:16:32.803Z,2.30
2023-03-10T04:17:32.758Z,2.40
2023-03-10T04:18:32.743Z,2.50
2023-03-10T04:19:32.737Z,2.40
2023-03-10T04:20:32.750Z,2.40
2023-03-10T04:21:32.715Z,1.80
2023-03-10T04:22:32.749Z,2.40
2023-03-10T04:23:32.701Z,2.20
2023-03-10T04:24:32.689Z,2.10
2023-03-10T04:25:32.676Z,2.10
2023-03-10T04:26:32.667Z,2.00
2023-03-10T04:27:32.689Z,2.10
2023-03-10T04:28:32.629Z,2.10
2023-03-10T04:29:32.623Z,2.20
2023-03-10T04:30:32.608Z,2.10
2023-03-10T04:31:32.690Z,2.40
2023-03-10T04:32:32.641Z,2.30
2023-03-10T04:33:32.601Z,2.20
2023-03-10T04:34:32.567Z,2.10
2023-03-10T04:35:33.573Z,1.90
2023-03-10T04:36:32.618Z,1.60
2023-03-10T04:37:32.551Z,2.00
2023-03-10T04:38:32.650Z,2.20
2023-03-10T04:39:32.511Z,1.90
2023-03-10T04:40:32.504Z,1.70
2023-03-10T04:41:32.530Z,1.70
2023-03-10T04:42:32.466Z,1.80
2023-03-10T04:43:32.527Z,1.70
2023-03-10T04:44:32.455Z,1.60
2023-03-10T04:45:32.445Z,1.30
2023-03-10T04:46:32.472Z,1.40
2023-03-10T04:47:32.480Z,1.70
2023-03-10T04:48:32.458Z,1.30
2023-03-10T04:49:32.408Z,1.50
2023-03-10T04:50:32.377Z,1.30
2023-03-10T04:51:32.369Z,1.10
2023-03-10T04:52:32.364Z,1.20
2023-03-10T04:53:32.339Z,1.30
2023-03-10T04:54:32.374Z,1.40
2023-03-10T04:55:32.340Z,1.30
2023-03-10T04:56:32.315Z,1.40
2023-03-10T04:57:32.310Z,1.50
2023-03-10T04:58:32.303Z,1.30
2023-03-10T04:59:32.331Z,1.60
2023-03-10T05:00:32.379Z,1.50
2023-03-10T05:01:32.355Z,1.20
2023-03-10T05:02:32.234Z,1.40
2023-03-10T05:03:32.224Z,1.70
2023-03-10T05:04:32.323Z,1.60
2023-03-10T05:05:32.219Z,1.60
2023-03-10T05:06:32.193Z,1.80
2023-03-10T05:07:32.186Z,1.70
2023-03-10T05:08:32.162Z,1.90
2023-03-10T05:09:32.146Z,1.90
2023-03-10T05:10:32.188Z,1.90
2023-03-10T05:11:32.136Z,1.40
2023-03-10T05:12:32.121Z,1.50
2023-03-10T05:13:32.119Z,1.50
2023-03-10T05:14:33.102Z,1.70
2023-03-10T05:15:32.131Z,1.40
2023-03-10T05:16:32.150Z,1.50
2023-03-10T05:17:32.073Z,1.70
2023-03-10T05:18:32.053Z,1.60
2023-03-10T05:19:32.045Z,1.70
2023-03-10T05:20:32.032Z,1.80
2023-03-10T05:21:32.039Z,1.40
2023-03-10T05:22:32.033Z,1.40
2023-03-10T05:23:32.011Z,1.60
2023-03-10T05:24:32.050Z,1.80
2023-03-10T05:25:31.990Z,1.90
2023-03-10T05:26:34.703Z,1.80
2023-03-10T05:27:32.943Z,1.60
2023-03-10T05:28:31.966Z,1.20
2023-03-10T05:29:31.925Z,1.30
2023-03-10T05:30:31.912Z,1.40
2023-03-10T05:31:31.954Z,1.30
2023-03-10T05:32:31.991Z,1.30
2023-03-10T05:33:32.342Z,1.20
2023-03-10T05:34:31.889Z,1.20
2023-03-10T05:35:31.868Z,1.00
2023-03-10T05:36:31.869Z,1.30
2023-03-10T05:37:31.898Z,1.20
2023-03-10T05:38:31.861Z,1.20
2023-03-10T05:39:31.818Z,0.90
2023-03-10T05:40:31.808Z,1.20
2023-03-10T05:41:31.790Z,1.10
2023-03-10T05:42:32.196Z,1.10
2023-03-10T05:43:31.765Z,1.30
2023-03-10T05:44:31.750Z,1.00
2023-03-10T05:45:31.734Z,1.30
2023-03-10T05:46:31.791Z,1.50
2023-03-10T05:47:31.708Z,1.30
2023-03-10T05:48:31.726Z,1.20
2023-03-10T05:49:31.710Z,1.50
2023-03-10T05:50:31.694Z,1.50
2023-03-10T05:51:31.670Z,1.60
2023-03-10T05:52:31.651Z,1.60
2023-03-10T05:53:31.709Z,1.60
2023-03-10T05:54:31.647Z,1.20
2023-03-10T05:55:31.625Z,1.40
2023-03-10T05:56:31.604Z,1.60
2023-03-10T05:57:31.614Z,1.60
2023-03-10T05:58:31.630Z,1.30
2023-03-10T05:59:31.567Z,1.30
2023-03-10T06:00:31.578Z,1.50
2023-03-10T06:01:31.564Z,1.40
2023-03-10T06:02:31.549Z,1.50
2023-03-10T06:03:31.615Z,1.60
2023-03-10T06:04:31.624Z,1.60
2023-03-10T06:05:31.502Z,1.70
2023-03-10T06:06:31.552Z,1.90
2023-03-10T06:07:31.488Z,1.80
2023-03-10T06:08:31.468Z,2.10
2023-03-10T06:09:31.516Z,2.00
2023-03-10T06:10:31.464Z,2.10
2023-03-10T06:11:31.450Z,2.00
2023-03-10T06:12:31.449Z,2.10
2023-03-10T06:13:31.434Z,2.40
2023-03-10T06:14:31.465Z,1.90
2023-03-10T06:15:31.427Z,2.20
2023-03-10T06:16:31.454Z,2.20
2023-03-10T06:17:31.379Z,2.20
2023-03-10T06:18:31.389Z,2.10
2023-03-10T06:19:31.346Z,2.10
2023-03-10T06:20:31.361Z,2.40
2023-03-10T06:21:31.345Z,2.20
2023-03-10T06:22:31.565Z,2.30
2023-03-10T06:23:31.324Z,2.00
2023-03-10T06:24:31.317Z,2.50
2023-03-10T06:25:31.331Z,2.40
2023-03-10T06:26:31.271Z,2.50
2023-03-10T06:27:31.292Z,2.20
2023-03-10T06:28:31.996Z,2.30
2023-03-10T06:29:31.228Z,2.40
2023-03-10T06:30:31.275Z,2.10
2023-03-10T06:31:31.367Z,2.30
2023-03-10T06:32:31.271Z,2.40
2023-03-10T06:33:31.228Z,2.40
2023-03-10T06:34:31.189Z,2.70
2023-03-10T06:35:31.162Z,2.30
2023-03-10T06:36:31.201Z,2.30
2023-03-10T06:37:31.850Z,2.40
2023-03-10T06:38:31.140Z,2.30
2023-03-10T06:39:31.141Z,2.30
2023-03-10T06:40:31.122Z,2.50
2023-03-10T06:41:31.138Z,2.20
2023-03-10T06:42:31.106Z,2.40
2023-03-10T06:43:31.115Z,2.60
2023-03-10T06:44:31.062Z,2.40
2023-03-10T06:45:31.134Z,2.00
2023-03-10T06:46:31.073Z,2.40
2023-03-10T06:47:31.032Z,2.40
2023-03-10T06:48:31.042Z,2.10
2023-03-10T06:49:31.019Z,2.30
2023-03-10T06:50:31.741Z,2.20
2023-03-10T06:51:32.041Z,2.30
2023-03-10T06:52:30.978Z,2.40
2023-03-10T06:53:30.953Z,2.40
2023-03-10T06:54:30.965Z,2.30
2023-03-10T06:55:30.930Z,2.20
2023-03-10T06:56:30.991Z,2.40
2023-03-10T06:57:30.940Z,2.20
2023-03-10T06:58:30.900Z,2.30
2023-03-10T06:59:30.884Z,2.40
2023-03-10T07:00:30.889Z,2.60
2023-03-10T07:01:30.926Z,2.20
2023-03-10T07:02:30.881Z,2.40
2023-03-10T07:03:30.843Z,2.20
2023-03-10T07:04:30.860Z,2.20
2023-03-10T07:05:30.820Z,2.10
2023-03-10T07:06:30.846Z,2.10
2023-03-10T07:07:30.825Z,2.30
2023-03-10T07:09:56.035Z,2.30
2023-03-10T07:10:56.043Z,2.40
2023-03-10T07:11:55.926Z,2.40
2023-03-10T07:12:55.984Z,2.20
2023-03-10T07:13:55.862Z,2.10
2023-03-10T07:14:55.728Z,2.00
2023-03-10T07:15:55.769Z,2.20
2023-03-10T07:16:55.730Z,1.90
2023-03-10T07:17:55.705Z,1.80
2023-03-10T07:18:55.791Z,2.20
2023-03-10T07:19:55.684Z,2.40
2023-03-10T07:20:55.712Z,2.20
2023-03-10T07:21:55.698Z,1.90
2023-03-10T07:22:55.662Z,2.00
2023-03-10T07:23:55.622Z,2.10
2023-03-10T07:24:55.714Z,2.20
2023-03-10T07:25:55.735Z,2.20
2023-03-10T07:26:55.658Z,2.10
2023-03-10T07:27:55.615Z,2.00
2023-03-10T07:28:55.554Z,2.20
2023-03-10T07:29:56.625Z,2.00
2023-03-10T07:33:28.291Z,1.80
2023-03-10T07:34:28.432Z,2.20
2023-03-10T07:35:28.099Z,2.10
2023-03-10T07:36:28.118Z,2.00
2023-03-10T07:37:28.205Z,2.00
2023-03-10T07:38:28.091Z,2.10
2023-03-10T07:39:28.048Z,2.20
2023-03-10T07:40:28.163Z,2.00
2023-03-10T07:41:27.999Z,1.90
2023-03-10T07:42:27.990Z,2.00
2023-03-10T07:43:27.989Z,2.10
2023-03-10T07:44:27.997Z,2.00
2023-03-10T07:45:27.950Z,1.80
2023-03-10T07:46:28.017Z,1.90
2023-03-10T07:47:27.920Z,2.00
2023-03-10T07:48:27.908Z,2.00
2023-03-10T07:49:27.947Z,1.80
2023-03-10T07:50:27.985Z,1.80
2023-03-10T07:51:27.874Z,1.80
2023-03-10T07:52:27.862Z,1.40
2023-03-10T07:53:27.843Z,1.70
2023-03-10T07:54:27.840Z,1.90
2023-03-10T07:55:27.862Z,1.90
2023-03-10T07:56:27.904Z,1.60
2023-03-10T07:57:27.803Z,1.80
2023-03-10T07:58:27.786Z,1.80
2023-03-10T07:59:27.774Z,1.80
2023-03-10T08:00:27.812Z,1.90
2023-03-10T08:01:27.793Z,2.00
2023-03-10T08:02:27.737Z,4.10
2023-03-10T08:03:27.788Z,3.10
2023-03-10T08:04:27.854Z,4.90
2023-03-10T08:05:27.778Z,5.70
2023-03-10T08:06:27.796Z,4.10
2023-03-10T08:07:27.688Z,3.30
2023-03-10T08:08:27.677Z,4.80
2023-03-10T08:09:27.651Z,5.70
2023-03-10T08:10:27.692Z,5.90
2023-03-10T08:11:27.680Z,5.90
2023-03-10T08:12:27.632Z,2.60
2023-03-10T08:13:27.660Z,2.80
2023-03-10T08:14:27.581Z,2.70
2023-03-10T08:15:27.575Z,2.50
2023-03-10T08:16:27.640Z,6.80
2023-03-10T08:17:27.580Z,4.30
2023-03-10T08:18:27.531Z,2.90
2023-03-10T08:19:27.714Z,2.10
2023-03-10T08:20:27.559Z,2.00
2023-03-10T08:21:28.764Z,1.90
2023-03-10T08:22:28.634Z,2.30
2023-03-10T08:23:28.776Z,2.10
2023-03-10T08:24:28.626Z,2.20
2023-03-10T08:25:28.593Z,1.90
2023-03-10T08:26:28.565Z,1.90
2023-03-10T08:27:29.213Z,2.10
2023-03-10T08:28:28.607Z,2.30
2023-03-10T08:29:28.522Z,2.40
2023-03-10T08:30:28.571Z,2.40
2023-03-10T08:31:28.590Z,1.90
2023-03-10T08:32:28.561Z,2.80
2023-03-10T08:33:28.512Z,2.40
2023-03-10T08:34:28.488Z,2.60
2023-03-10T08:35:28.460Z,2.30
2023-03-10T08:36:28.447Z,2.20
2023-03-10T08:37:28.462Z,2.40
2023-03-10T08:38:28.431Z,2.60
2023-03-10T08:39:28.430Z,2.50
2023-03-10T08:40:28.417Z,2.40
2023-03-10T08:41:28.381Z,2.50
2023-03-10T08:42:28.420Z,2.40
2023-03-10T08:43:28.359Z,2.20
2023-03-10T08:44:28.363Z,2.30
2023-03-10T08:45:28.327Z,2.70
2023-03-10T08:46:28.349Z,2.00
2023-03-10T08:47:31.040Z,2.00
2023-03-10T08:48:28.299Z,1.70
2023-03-10T08:49:28.335Z,2.40
2023-03-10T08:50:28.270Z,2.20
2023-03-10T08:51:28.285Z,2.20
2023-03-10T08:52:28.256Z,2.50
2023-03-10T08:53:28.240Z,2.30
2023-03-10T08:54:29.531Z,2.60
2023-03-10T08:55:28.212Z,2.10
2023-03-10T08:56:28.292Z,2.40
2023-03-10T08:57:28.197Z,2.00
2023-03-10T08:58:28.185Z,2.40
2023-03-10T08:59:28.172Z,1.90
2023-03-10T09:00:28.235Z,2.50
2023-03-10T09:01:28.158Z,2.20
2023-03-10T09:02:28.222Z,2.50
2023-03-10T09:03:31.088Z,2.20
2023-03-10T09:04:28.147Z,2.30
2023-03-10T09:05:28.204Z,2.50
2023-03-10T09:06:28.117Z,2.60
2023-03-10T09:07:28.126Z,2.50
2023-03-10T09:08:28.064Z,2.70
2023-03-10T09:09:28.067Z,2.50
2023-03-10T09:10:28.052Z,3.00
2023-03-10T09:11:28.045Z,2.60
2023-03-10T09:12:34.074Z,2.60
2023-03-10T09:13:28.029Z,2.60
2023-03-10T09:14:28.030Z,2.50
2023-03-10T09:15:27.977Z,2.40
2023-03-10T09:16:28.561Z,2.20
2023-03-10T09:17:27.948Z,2.50
2023-03-10T09:18:27.950Z,2.70
2023-03-10T09:19:28.076Z,2.60
2023-03-10T09:20:29.437Z,2.70
2023-03-10T09:21:30.264Z,2.90
2023-03-10T09:22:27.905Z,2.90
2023-03-10T09:23:27.882Z,2.40
2023-03-10T09:24:27.889Z,2.30
2023-03-10T09:25:28.294Z,2.60
2023-03-10T09:26:27.879Z,2.50
2023-03-10T09:27:27.859Z,2.30
2023-03-10T09:28:27.859Z,2.30
2023-03-10T09:29:42.206Z,9.10
2023-03-10T09:30:28.117Z,3.60
2023-03-10T09:33:22.251Z,2.30
2023-03-10T09:34:22.310Z,2.50
2023-03-10T09:35:22.583Z,2.40
2023-03-10T09:36:21.866Z,2.20
2023-03-10T09:37:21.726Z,2.20
2023-03-10T09:38:21.822Z,2.30
2023-03-10T09:39:21.752Z,2.30
2023-03-10T09:40:21.753Z,2.30
2023-03-10T09:41:21.703Z,2.50
2023-03-10T09:42:29.164Z,2.60
2023-03-10T09:43:22.702Z,2.30
2023-03-10T09:44:21.674Z,2.50
2023-03-10T09:45:21.630Z,2.30
2023-03-10T09:46:21.852Z,2.40
2023-03-10T09:47:21.930Z,2.40
2023-03-10T09:48:23.592Z,2.30
2023-03-10T09:54:36.021Z,2.30
2023-03-10T09:55:38.240Z,2.00
2023-03-10T09:56:36.020Z,2.30
2023-03-10T09:57:35.928Z,2.20
2023-03-10T09:58:36.030Z,2.20
2023-03-10T09:59:35.864Z,2.20
2023-03-10T10:00:35.803Z,2.30
2023-03-10T10:01:35.837Z,2.20
2023-03-10T10:02:35.785Z,2.10
2023-03-10T10:03:51.531Z,2.40
2023-03-10T10:04:35.832Z,2.20
2023-03-10T10:05:35.797Z,2.00
2023-03-10T10:06:35.765Z,2.20
2023-03-10T10:07:35.718Z,2.20
2023-03-10T10:08:35.718Z,2.20
2023-03-10T10:09:35.731Z,2.20
2023-03-10T10:10:35.704Z,2.40
2023-03-10T10:11:35.668Z,2.10
2023-03-10T10:12:35.658Z,2.30
2023-03-10T10:13:35.638Z,2.30
2023-03-10T10:14:38.381Z,1.90
2023-03-10T10:15:35.777Z,1.80
2023-03-10T10:16:35.684Z,2.20
2023-03-10T10:17:41.635Z,1.80
2023-03-10T10:18:35.652Z,1.90
2023-03-10T10:19:37.077Z,2.10
2023-03-10T10:20:35.587Z,1.90
2023-03-10T10:21:42.344Z,1.70
2023-03-10T10:22:35.565Z,1.80
2023-03-10T10:23:35.521Z,1.70
2023-03-10T10:24:35.508Z,1.80
2023-03-10T10:25:35.519Z,1.90
2023-03-10T10:26:35.490Z,1.60
2023-03-10T10:27:35.501Z,1.80
2023-03-10T10:28:35.516Z,1.80
2023-03-10T10:29:36.671Z,1.80
2023-03-10T10:30:36.698Z,1.70
2023-03-10T10:31:36.565Z,1.60
2023-03-10T10:32:36.544Z,1.80
2023-03-10T10:33:36.572Z,1.60
2023-03-10T10:34:36.566Z,1.70
2023-03-10T10:35:36.634Z,1.90
2023-03-10T10:36:36.514Z,1.90
2023-03-10T10:37:39.410Z,1.70
2023-03-10T10:38:37.132Z,1.60
2023-03-10T10:39:36.493Z,1.60
2023-03-10T10:40:36.525Z,1.60
2023-03-10T10:41:36.497Z,1.60
2023-03-10T10:42:36.522Z,1.60
2023-03-10T10:43:36.453Z,1.80
2023-03-10T10:44:36.476Z,1.80
2023-03-10T10:45:36.488Z,1.90
2023-03-10T10:46:36.473Z,1.70
2023-03-10T10:47:36.499Z,1.70
2023-03-10T10:48:36.361Z,1.60
2023-03-10T10:49:36.408Z,1.70
2023-03-10T10:50:36.414Z,1.70
2023-03-10T10:51:36.425Z,1.80
2023-03-10T10:52:36.295Z,1.70
2023-03-10T10:53:36.325Z,1.70
2023-03-10T10:54:36.282Z,1.70
2023-03-10T10:55:36.334Z,2.00
2023-03-10T10:56:36.309Z,2.00
2023-03-10T10:57:36.239Z,1.90
2023-03-10T10:58:36.262Z,1.70
2023-03-10T10:59:36.273Z,1.90
2023-03-10T11:00:36.200Z,1.80
2023-03-10T11:01:36.306Z,1.70
2023-03-10T11:02:36.230Z,1.90
2023-03-10T11:03:36.205Z,1.70
2023-03-10T11:04:36.157Z,1.60
2023-03-10T11:05:36.149Z,1.50
2023-03-10T11:06:36.138Z,1.60
2023-03-10T11:07:36.187Z,1.70
2023-03-10T11:08:36.102Z,1.60
2023-03-10T11:09:36.137Z,1.90
2023-03-10T11:10:36.101Z,1.50
2023-03-10T11:11:36.129Z,1.80
2023-03-10T11:12:36.107Z,1.50
2023-03-10T11:13:36.061Z,1.40
2023-03-10T11:14:36.035Z,1.80
2023-03-10T11:15:36.072Z,1.70
2023-03-10T11:16:36.054Z,1.60
2023-03-10T11:17:37.042Z,1.80
2023-03-10T11:18:35.979Z,1.50
2023-03-10T11:19:36.027Z,1.70
2023-03-10T11:20:35.949Z,1.80
2023-03-10T11:21:35.957Z,1.50
2023-03-10T11:22:35.993Z,1.50
2023-03-10T11:23:35.940Z,1.70
2023-03-10T11:24:35.984Z,1.70
2023-03-10T11:25:35.942Z,1.60
2023-03-10T11:26:35.910Z,1.80
2023-03-10T11:27:35.945Z,1.60
2023-03-10T11:28:35.882Z,2.00
2023-03-10T11:29:35.893Z,1.80
2023-03-10T11:30:35.888Z,1.90
2023-03-10T11:31:35.912Z,1.80
2023-03-10T11:32:35.886Z,1.90
2023-03-10T11:33:35.843Z,1.80
2023-03-10T11:34:35.795Z,1.60
2023-03-10T11:35:35.837Z,1.80
2023-03-10T11:36:43.309Z,1.80
2023-03-10T11:37:36.206Z,1.40
2023-03-10T11:38:35.804Z,1.80
2023-03-10T11:39:35.768Z,1.70
2023-03-10T11:40:35.746Z,1.50
2023-03-10T11:41:35.818Z,1.60
2023-03-10T11:42:35.726Z,2.00
2023-03-10T11:43:35.732Z,1.70
2023-03-10T11:44:35.717Z,1.50
2023-03-10T11:45:35.686Z,1.50
2023-03-10T11:46:36.085Z,1.50
2023-03-10T11:47:35.675Z,1.60
2023-03-10T11:48:35.693Z,1.80
2023-03-10T11:49:35.670Z,1.80
2023-03-10T11:50:35.623Z,1.70
2023-03-10T11:51:35.608Z,2.00
2023-03-10T11:52:35.655Z,1.70
2023-03-10T11:53:35.608Z,2.00
2023-03-10T11:54:35.588Z,1.90
2023-03-10T11:55:35.567Z,1.90
2023-03-10T11:56:35.572Z,1.90
2023-03-10T11:57:35.535Z,1.60
2023-03-10T11:58:35.536Z,1.80
2023-03-10T11:59:35.528Z,1.70
2023-03-10T12:00:35.506Z,1.70
2023-03-10T12:01:35.490Z,1.60
2023-03-10T12:02:35.482Z,2.10
2023-03-10T12:03:35.497Z,1.90
2023-03-10T12:04:35.456Z,2.00
2023-03-10T12:05:35.486Z,1.90
2023-03-10T12:06:35.461Z,2.10
2023-03-10T12:07:35.428Z,1.90
2023-03-10T12:08:35.411Z,1.70
2023-03-10T12:09:35.454Z,1.80
2023-03-10T12:10:35.389Z,2.00
2023-03-10T12:11:35.403Z,1.60
2023-03-10T12:12:35.360Z,1.80
2023-03-10T12:13:35.353Z,1.50
2023-03-10T12:14:35.422Z,1.90
2023-03-10T12:15:35.492Z,1.90
2023-03-10T12:16:35.462Z,2.10
2023-03-10T12:17:35.330Z,1.80
2023-03-10T12:18:35.307Z,1.90
2023-03-10T12:19:35.347Z,2.00
2023-03-10T12:20:35.359Z,2.00
2023-03-10T12:21:35.290Z,2.40
2023-03-10T12:22:35.257Z,2.10
2023-03-10T12:23:35.281Z,2.00
2023-03-10T12:24:35.233Z,2.20
2023-03-10T12:25:35.277Z,2.10
2023-03-10T12:26:35.231Z,2.30
2023-03-10T12:27:35.233Z,1.90
2023-03-10T12:28:35.183Z,2.20
2023-03-10T12:29:35.218Z,2.10
2023-03-10T12:30:35.175Z,2.00
2023-03-10T12:31:35.240Z,1.80
2023-03-10T12:32:36.241Z,1.90
2023-03-10T12:33:35.159Z,1.90
2023-03-10T12:34:35.132Z,2.20
2023-03-10T12:35:35.165Z,2.30
2023-03-10T12:36:35.115Z,2.00
2023-03-10T12:37:35.096Z,2.10
2023-03-10T12:38:35.103Z,2.20
2023-03-10T12:39:35.112Z,2.10
2023-03-10T12:40:35.097Z,2.10
2023-03-10T12:41:35.766Z,2.10
2023-03-10T12:42:35.096Z,1.80
2023-03-10T12:43:35.017Z,1.90
2023-03-10T12:44:35.012Z,1.90
2023-03-10T12:45:35.030Z,2.00
2023-03-10T12:46:35.132Z,2.10
2023-03-10T12:47:34.967Z,2.20
2023-03-10T12:48:34.991Z,2.00
2023-03-10T12:49:34.954Z,2.20
2023-03-10T12:50:34.941Z,1.80
2023-03-10T12:51:34.995Z,2.10
2023-03-10T12:52:35.060Z,2.10
2023-03-10T12:53:34.912Z,2.00
2023-03-10T12:54:34.935Z,1.90
2023-03-10T12:55:34.889Z,1.30
2023-03-10T12:56:34.904Z,1.50
2023-03-10T12:57:34.915Z,1.50
2023-03-10T12:58:34.858Z,1.90
2023-03-10T12:59:34.842Z,2.50
2023-03-10T13:00:34.911Z,1.40
2023-03-10T13:01:36.707Z,1.10
2023-03-10T13:02:34.837Z,1.20
2023-03-10T13:03:35.790Z,1.30
2023-03-10T13:04:34.860Z,1.40
2023-03-10T13:05:34.784Z,1.00
2023-03-10T13:06:34.812Z,1.20
2023-03-10T13:07:34.768Z,1.20
2023-03-10T13:08:34.723Z,1.30
2023-03-10T13:09:35.390Z,1.40
2023-03-10T13:10:34.709Z,1.40
2023-03-10T13:11:34.717Z,1.70
2023-03-10T13:12:34.800Z,1.20
2023-03-10T13:13:34.705Z,1.30
2023-03-10T13:14:34.665Z,1.30
2023-03-10T13:15:34.669Z,1.50
2023-03-10T13:16:34.667Z,1.50
2023-03-10T13:17:34.655Z,1.40
2023-03-10T13:18:34.640Z,1.20
2023-03-10T13:19:34.607Z,1.50
2023-03-10T13:20:34.583Z,1.60
2023-03-10T13:21:34.600Z,1.60
2023-03-10T13:22:35.065Z,1.60
2023-03-10T13:23:34.572Z,1.30
2023-03-10T13:24:34.543Z,1.60
2023-03-10T13:25:34.557Z,1.50
2023-03-10T13:26:34.519Z,1.50
2023-03-10T13:27:34.521Z,1.50
2023-03-10T13:28:34.820Z,1.50
2023-03-10T13:29:34.508Z,1.30